createdAt,value
2022-10-13T00:00:45.651Z,1.70
2022-10-13T00:03:12.553Z,1.60
2022-10-13T00:05:43.927Z,2.15
2022-10-13T00:08:11.808Z,2.30
2022-10-13T00:10:47.142Z,2.20
2022-10-13T00:13:15.000Z,1.90
2022-10-13T00:15:44.871Z,2.25
2022-10-13T00:18:12.103Z,2.22
2022-10-13T00:20:43.677Z,2.15
2022-10-13T00:23:10.625Z,1.77
2022-10-13T00:25:44.157Z,2.17
2022-10-13T00:28:11.537Z,2.50
2022-10-13T00:30:39.150Z,2.10
2022-10-13T00:33:06.521Z,2.47
2022-10-13T00:35:34.040Z,2.05
2022-10-13T00:38:00.813Z,1.88
2022-10-13T00:40:31.009Z,2.30
2022-10-13T00:42:57.767Z,1.90
2022-10-13T00:45:27.433Z,2.17
2022-10-13T00:47:58.136Z,2.22
2022-10-13T00:50:29.944Z,1.90
2022-10-13T00:52:58.585Z,1.98
2022-10-13T00:55:31.437Z,2.20
2022-10-13T00:58:05.107Z,1.85
2022-10-13T01:00:34.278Z,1.77
2022-10-13T01:03:02.186Z,2.20
2022-10-13T01:05:30.235Z,2.15
2022-10-13T01:07:57.930Z,2.00
2022-10-13T01:10:46.100Z,1.98
2022-10-13T01:13:39.006Z,2.13
2022-10-13T01:16:10.489Z,2.13
2022-10-13T01:19:05.639Z,2.00
2022-10-13T01:21:48.975Z,2.05
2022-10-13T01:25:03.180Z,2.10
2022-10-13T01:59:40.391Z,2.15
2022-10-13T02:02:19.012Z,1.75
2022-10-13T02:04:56.638Z,2.13
2022-10-13T02:07:46.930Z,2.00
2022-10-13T02:10:26.380Z,1.65
2022-10-13T02:13:07.892Z,1.70
2022-10-13T02:15:41.315Z,1.80
2022-10-13T02:18:10.110Z,1.90
2022-10-13T02:20:37.385Z,1.90
2022-10-13T02:23:12.017Z,1.75
2022-10-13T02:25:39.905Z,1.90
2022-10-13T02:28:07.479Z,1.88
2022-10-13T02:30:42.621Z,2.00
2022-10-13T02:33:09.633Z,2.00
2022-10-13T02:35:37.438Z,2.13
2022-10-13T02:38:04.247Z,1.92
2022-10-13T02:40:31.134Z,1.65
2022-10-13T02:42:57.831Z,2.05
2022-10-13T02:45:24.611Z,1.73
2022-10-13T02:47:55.636Z,2.00
2022-10-13T02:50:22.212Z,1.90
2022-10-13T02:52:50.206Z,1.77
2022-10-13T02:55:16.802Z,1.98
2022-10-13T02:57:45.856Z,1.80
2022-10-13T03:00:13.401Z,1.80
2022-10-13T03:02:40.255Z,2.10
2022-10-13T03:05:07.149Z,1.73
2022-10-13T03:07:33.779Z,1.80
2022-10-13T03:10:00.462Z,2.00
2022-10-13T03:12:27.153Z,1.90
2022-10-13T03:14:53.769Z,1.80
2022-10-13T03:17:20.347Z,1.90
2022-10-13T03:19:46.962Z,1.90
2022-10-13T03:22:17.741Z,2.00
2022-10-13T03:24:45.320Z,1.80
2022-10-13T03:27:11.930Z,1.88
2022-10-13T03:29:39.079Z,1.70
2022-10-13T03:32:05.710Z,1.98
2022-10-13T03:34:32.575Z,1.90
2022-10-13T03:36:59.386Z,1.90
2022-10-13T03:39:26.758Z,1.65
2022-10-13T03:41:53.430Z,1.83
2022-10-13T03:44:20.349Z,1.70
2022-10-13T03:46:47.153Z,1.80
2022-10-13T03:49:13.804Z,1.60
2022-10-13T03:51:40.887Z,1.75
2022-10-13T03:54:07.437Z,2.20
2022-10-13T03:56:34.030Z,1.77
2022-10-13T03:59:01.316Z,1.80
2022-10-13T04:01:30.683Z,1.95
2022-10-13T04:06:26.524Z,1.67
2022-10-13T04:08:53.290Z,1.88
2022-10-13T04:11:21.552Z,1.85
2022-10-13T04:13:51.205Z,1.85
2022-10-13T04:16:21.254Z,1.50
2022-10-13T04:18:52.825Z,1.92
2022-10-13T04:21:19.779Z,2.00
2022-10-13T04:23:46.296Z,1.70
2022-10-13T04:26:18.468Z,1.77
2022-10-13T04:28:46.568Z,1.45
2022-10-13T04:31:13.902Z,1.67
2022-10-13T04:33:40.904Z,1.55
2022-10-13T04:36:10.186Z,1.70
2022-10-13T04:38:36.942Z,1.60
2022-10-13T04:41:05.258Z,1.63
2022-10-13T04:43:32.679Z,1.83
2022-10-13T04:46:25.550Z,1.67
2022-10-13T04:48:55.648Z,1.55
2022-10-13T04:51:28.577Z,2.08
2022-10-13T04:53:59.183Z,1.75
2022-10-13T04:56:26.147Z,1.77
2022-10-13T04:58:53.712Z,1.80
2022-10-13T05:01:23.033Z,1.90
2022-10-13T05:03:54.602Z,1.75
2022-10-13T05:06:26.019Z,1.80
2022-10-13T05:08:56.378Z,1.60
2022-10-13T05:11:24.387Z,2.22
2022-10-13T05:13:50.982Z,1.67
2022-10-13T05:16:18.841Z,1.70
2022-10-13T05:18:45.744Z,1.70
2022-10-13T05:21:18.048Z,1.98
2022-10-13T05:23:47.866Z,1.90
2022-10-13T05:26:17.943Z,1.92
2022-10-13T05:28:44.958Z,1.70
2022-10-13T05:31:15.834Z,1.88
2022-10-13T05:33:43.117Z,2.08
2022-10-13T05:36:12.724Z,1.80
2022-10-13T05:38:39.726Z,2.10
2022-10-13T05:41:09.772Z,1.70
2022-10-13T05:43:37.771Z,1.85
2022-10-13T05:46:04.725Z,1.75
2022-10-13T05:48:36.971Z,2.00
2022-10-13T05:51:09.870Z,2.17
2022-10-13T05:53:39.263Z,2.03
2022-10-13T05:58:49.047Z,1.88
2022-10-13T06:01:19.847Z,1.50
2022-10-13T06:03:49.251Z,1.90
2022-10-13T06:08:42.791Z,1.67
2022-10-13T06:11:09.702Z,1.83
2022-10-13T06:13:36.453Z,1.80
2022-10-13T06:16:04.024Z,1.70
2022-10-13T06:18:30.788Z,1.67
2022-10-13T06:20:57.556Z,1.60
2022-10-13T06:23:24.197Z,1.80
2022-10-13T06:25:52.465Z,1.83
2022-10-13T06:28:19.952Z,3.58
2022-10-13T06:30:53.413Z,5.13
2022-10-13T06:33:24.004Z,6.07
2022-10-13T06:35:52.658Z,5.80
2022-10-13T06:38:19.715Z,5.90
2022-10-13T06:40:48.292Z,5.63
2022-10-13T06:43:14.886Z,5.32
2022-10-13T06:45:41.712Z,5.97
2022-10-13T06:48:08.369Z,5.32
2022-10-13T06:50:37.293Z,5.93
2022-10-13T06:53:07.456Z,6.07
2022-10-13T06:55:34.259Z,5.70
2022-10-13T06:58:01.016Z,5.57
2022-10-13T07:00:28.004Z,5.97
2022-10-13T07:02:54.665Z,6.32
2022-10-13T07:05:21.392Z,5.63
2022-10-13T07:07:48.236Z,6.00
2022-10-13T07:10:15.031Z,5.82
2022-10-13T07:12:42.092Z,6.28
2022-10-13T07:15:09.132Z,5.57
2022-10-13T07:17:35.884Z,6.05
2022-10-13T07:20:07.256Z,5.90
2022-10-13T07:22:34.437Z,5.80
2022-10-13T07:25:01.194Z,5.28
2022-10-13T07:27:28.386Z,5.78
2022-10-13T07:29:55.786Z,5.85
2022-10-13T07:32:22.369Z,5.93
2022-10-13T07:34:52.550Z,5.40
2022-10-13T07:37:19.507Z,5.97
2022-10-13T07:39:46.978Z,5.88
2022-10-13T07:42:13.808Z,6.03
2022-10-13T07:44:40.439Z,5.22
2022-10-13T07:47:07.042Z,6.90
2022-10-13T07:49:33.719Z,6.45
2022-10-13T07:52:04.445Z,6.28
2022-10-13T07:54:31.583Z,6.13
2022-10-13T07:56:58.406Z,6.65
2022-10-13T07:59:25.177Z,6.57
2022-10-13T08:01:51.862Z,6.63
2022-10-13T08:04:18.640Z,6.78
2022-10-13T08:06:45.410Z,7.28
2022-10-13T08:09:12.390Z,6.55
2022-10-13T08:11:38.984Z,7.35
2022-10-13T08:14:05.574Z,7.00
2022-10-13T08:16:33.220Z,7.50
2022-10-13T08:19:00.221Z,7.00
2022-10-13T08:22:27.273Z,6.93
2022-10-13T08:24:16.677Z,8.07
2022-10-13T08:26:45.500Z,7.47
2022-10-13T08:29:28.221Z,7.40
2022-10-13T08:31:55.297Z,6.97
2022-10-13T08:34:24.765Z,7.43
2022-10-13T08:36:54.477Z,7.28
2022-10-13T08:39:23.328Z,7.32
2022-10-13T08:41:50.511Z,7.00
2022-10-13T08:47:46.775Z,6.65
2022-10-13T08:50:17.685Z,7.20
2022-10-13T08:53:18.591Z,6.97
2022-10-13T08:55:52.107Z,7.40
2022-10-13T08:58:23.790Z,7.00
2022-10-13T09:01:05.323Z,7.22
2022-10-13T09:03:32.142Z,7.05
2022-10-13T09:06:04.006Z,6.85
2022-10-13T09:08:45.471Z,7.10
2022-10-13T09:11:13.325Z,7.03
2022-10-13T09:13:40.684Z,7.32
2022-10-13T09:16:07.624Z,7.25
2022-10-13T09:18:35.011Z,7.47
2022-10-13T09:21:17.676Z,6.65
2022-10-13T09:23:44.536Z,6.73
2022-10-13T09:26:22.511Z,7.10
2022-10-13T09:28:50.821Z,6.60
2022-10-13T09:31:26.621Z,6.45
2022-10-13T09:34:13.118Z,6.70
2022-10-13T09:36:55.452Z,6.45
2022-10-13T09:39:22.790Z,5.90
2022-10-13T09:41:50.022Z,6.65
2022-10-13T09:44:27.794Z,6.45
2022-10-13T09:47:01.370Z,6.18
2022-10-13T09:49:39.831Z,6.50
2022-10-13T09:52:17.069Z,6.63
2022-10-13T09:54:51.044Z,6.18
2022-10-13T09:57:41.389Z,6.80
2022-10-13T10:00:24.300Z,6.15
2022-10-13T10:02:53.657Z,5.97
2022-10-13T10:07:48.456Z,5.97
2022-10-13T10:10:28.261Z,5.65
2022-10-13T10:12:55.070Z,6.10
2022-10-13T10:15:29.398Z,6.32
2022-10-13T10:18:01.770Z,5.60
2022-10-13T10:20:28.496Z,5.65
2022-10-13T10:23:05.781Z,5.75
2022-10-13T10:25:42.489Z,5.97
2022-10-13T10:28:32.077Z,5.78
2022-10-13T10:31:12.190Z,6.05
2022-10-13T10:33:45.880Z,5.90
2022-10-13T10:36:17.916Z,5.95
2022-10-13T10:39:01.530Z,5.32
2022-10-13T10:41:54.371Z,5.65
2022-10-13T10:44:29.556Z,5.05
2022-10-13T10:47:02.072Z,5.05
2022-10-13T10:49:33.881Z,5.60
2022-10-13T10:52:05.961Z,5.47
2022-10-13T10:54:57.076Z,6.00
2022-10-13T10:57:31.373Z,5.30
2022-10-13T11:00:06.274Z,5.90
2022-10-13T11:02:46.137Z,5.60
2022-10-13T11:05:13.826Z,5.10
2022-10-13T11:07:40.416Z,4.95
2022-10-13T11:10:17.983Z,5.22
2022-10-13T11:12:53.410Z,4.97
2022-10-13T11:15:26.191Z,5.60
2022-10-13T11:17:52.974Z,4.95
2022-10-13T11:20:22.332Z,5.32
2022-10-13T11:25:42.407Z,5.47
2022-10-13T11:28:26.104Z,4.63
2022-10-13T11:30:55.458Z,5.15
2022-10-13T11:36:30.295Z,4.78
2022-10-13T11:42:03.756Z,4.10
2022-10-13T11:44:51.746Z,4.70
2022-10-13T11:47:29.012Z,4.68
2022-10-13T11:49:58.278Z,4.40
2022-10-13T11:52:39.281Z,4.05
2022-10-13T11:55:13.724Z,4.50
2022-10-13T11:57:41.496Z,4.63
2022-10-13T12:00:15.703Z,4.57
2022-10-13T12:02:50.700Z,4.53
2022-10-13T12:05:25.567Z,5.30
2022-10-13T12:08:00.534Z,4.53
2022-10-13T12:10:32.931Z,4.22
2022-10-13T12:13:01.032Z,4.53
2022-10-13T12:15:33.950Z,4.47
2022-10-13T12:18:00.844Z,4.60
2022-10-13T12:20:31.849Z,4.70
2022-10-13T12:25:30.620Z,4.38
2022-10-13T12:28:00.234Z,4.07
2022-10-13T12:30:29.573Z,3.88
2022-10-13T12:32:59.245Z,3.97
2022-10-13T12:35:31.775Z,4.13
2022-10-13T12:38:02.666Z,4.20
2022-10-13T12:40:30.664Z,4.18
2022-10-13T12:42:57.928Z,3.85
2022-10-13T12:45:28.218Z,4.40
2022-10-13T12:47:55.791Z,3.80
2022-10-13T12:50:25.261Z,3.80
2022-10-13T12:53:02.375Z,4.20
2022-10-13T12:55:29.465Z,3.50
2022-10-13T12:57:56.168Z,4.10
2022-10-13T13:00:24.878Z,4.03
2022-10-13T13:02:51.411Z,4.35
2022-10-13T13:05:39.338Z,3.95
2022-10-13T13:08:22.380Z,4.00
2022-10-13T13:11:02.062Z,3.50
2022-10-13T13:13:29.741Z,3.90
2022-10-13T13:16:17.814Z,3.60
2022-10-13T13:18:46.801Z,3.83
2022-10-13T13:21:15.797Z,4.20
2022-10-13T13:23:49.590Z,3.92
2022-10-13T13:26:21.779Z,3.88
2022-10-13T13:28:50.099Z,3.58
2022-10-13T13:31:19.938Z,4.10
2022-10-13T13:33:47.752Z,3.22
2022-10-13T13:36:16.050Z,3.70
2022-10-13T13:38:46.810Z,3.58
2022-10-13T13:41:13.778Z,3.60
2022-10-13T13:43:40.632Z,3.58
2022-10-13T13:46:17.101Z,3.60
2022-10-13T13:48:44.188Z,3.42
2022-10-13T13:51:10.901Z,3.70
2022-10-13T13:53:37.824Z,3.60
2022-10-13T13:56:05.258Z,3.45
2022-10-13T13:58:32.004Z,3.70
2022-10-13T14:00:59.892Z,3.67
2022-10-13T14:03:26.530Z,4.07
2022-10-13T14:05:53.117Z,4.50
2022-10-13T14:08:19.785Z,4.40
2022-10-13T14:10:46.562Z,4.93
2022-10-13T14:13:17.950Z,4.43
2022-10-13T14:15:44.612Z,4.63
2022-10-13T14:18:11.278Z,5.53
2022-10-13T14:20:41.354Z,4.65
2022-10-13T14:23:07.888Z,5.07
2022-10-13T14:25:34.468Z,5.20
2022-10-13T14:28:00.958Z,5.25
2022-10-13T14:30:27.722Z,4.95
2022-10-13T14:32:54.488Z,5.57
2022-10-13T14:35:22.753Z,4.93
2022-10-13T14:37:49.957Z,5.13
2022-10-13T14:40:16.764Z,5.35
2022-10-13T14:42:43.774Z,5.13
2022-10-13T14:45:15.860Z,5.18
2022-10-13T14:47:42.849Z,5.85
2022-10-13T14:50:10.033Z,5.80
2022-10-13T14:52:36.736Z,5.25
2022-10-13T14:55:03.480Z,5.13
2022-10-13T14:57:30.023Z,5.70
2022-10-13T15:00:00.899Z,6.07
2022-10-13T15:02:28.804Z,5.57
2022-10-13T15:04:55.457Z,5.50
2022-10-13T15:07:22.396Z,5.88
2022-10-13T15:10:04.404Z,5.85
2022-10-13T15:12:31.940Z,5.50
2022-10-13T15:14:58.676Z,5.35
2022-10-13T15:17:25.636Z,5.38
2022-10-13T15:19:52.151Z,5.18
2022-10-13T15:22:19.000Z,5.72
2022-10-13T15:24:45.796Z,5.22
2022-10-13T15:27:12.365Z,5.63
2022-10-13T15:29:39.224Z,5.32
2022-10-13T15:32:09.439Z,4.90
2022-10-13T15:34:37.820Z,5.35
2022-10-13T15:37:04.414Z,5.38
2022-10-13T15:39:31.181Z,5.20
2022-10-13T15:41:58.004Z,5.25
2022-10-13T15:44:25.184Z,4.93
2022-10-13T15:47:07.418Z,5.38
2022-10-13T15:49:39.313Z,5.20
2022-10-13T15:52:05.985Z,5.25
2022-10-13T15:54:32.625Z,5.07
2022-10-13T15:56:59.736Z,5.07
2022-10-13T15:59:26.353Z,5.43
2022-10-13T16:01:52.969Z,5.07
2022-10-13T16:04:19.503Z,5.15
2022-10-13T16:06:46.042Z,4.82
2022-10-13T16:09:12.810Z,5.20
2022-10-13T16:11:39.634Z,4.72
2022-10-13T16:14:06.369Z,4.53
2022-10-13T16:16:33.151Z,4.93
2022-10-13T16:19:00.205Z,5.40
2022-10-13T16:21:27.551Z,4.57
2022-10-13T16:23:54.253Z,5.30
2022-10-13T16:26:21.037Z,5.03
2022-10-13T16:28:47.893Z,5.10
2022-10-13T16:31:16.992Z,4.30
2022-10-13T16:33:45.579Z,4.53
2022-10-13T16:36:17.551Z,4.80
2022-10-13T16:38:45.345Z,4.38
2022-10-13T16:41:15.481Z,4.65
2022-10-13T16:43:43.118Z,4.82
2022-10-13T16:46:15.084Z,4.00
2022-10-13T16:48:42.908Z,4.60
2022-10-13T16:51:14.636Z,4.18
2022-10-13T16:53:41.630Z,4.22
2022-10-13T16:56:08.886Z,4.22
2022-10-13T16:58:35.716Z,4.78
2022-10-13T17:01:05.572Z,4.28
2022-10-13T17:05:58.781Z,4.07
2022-10-13T17:08:25.392Z,3.88
2022-10-13T17:10:58.017Z,4.18
2022-10-13T17:13:25.116Z,3.80
2022-10-13T17:15:53.204Z,4.18
2022-10-13T17:18:20.858Z,3.80
2022-10-13T17:20:56.207Z,4.28
2022-10-13T17:23:24.394Z,3.72
2022-10-13T17:25:52.303Z,3.90
2022-10-13T17:28:19.626Z,4.10
2022-10-13T17:30:58.698Z,4.13
2022-10-13T17:33:27.283Z,3.65
2022-10-13T17:36:00.115Z,3.63
2022-10-13T17:38:26.753Z,3.50
2022-10-13T17:40:57.367Z,3.80
2022-10-13T17:43:26.368Z,3.95
2022-10-13T17:45:53.768Z,3.40
2022-10-13T17:48:23.105Z,3.70
2022-10-13T17:50:50.146Z,3.60
2022-10-13T17:53:18.771Z,3.37
2022-10-13T17:55:45.598Z,3.53
2022-10-13T17:58:14.100Z,4.07
2022-10-13T18:01:07.988Z,3.60
2022-10-13T18:03:27.222Z,3.33
2022-10-13T18:05:53.782Z,3.38
2022-10-13T18:08:21.254Z,3.50
2022-10-13T18:11:12.505Z,3.50
2022-10-13T18:13:35.401Z,3.67
2022-10-13T18:16:23.496Z,3.50
2022-10-13T18:18:51.650Z,3.53
2022-10-13T18:21:22.504Z,3.42
2022-10-13T18:23:51.723Z,3.70
2022-10-13T18:26:19.956Z,3.50
2022-10-13T18:28:48.546Z,3.10
2022-10-13T18:31:32.157Z,3.47
2022-10-13T18:34:02.502Z,3.15
2022-10-13T18:36:39.062Z,3.13
2022-10-13T18:39:10.726Z,3.43
2022-10-13T18:41:39.305Z,3.33
2022-10-13T18:44:06.649Z,3.10
2022-10-13T18:46:34.791Z,3.08
2022-10-13T18:49:02.731Z,3.35
2022-10-13T18:51:35.604Z,3.22
2022-10-13T18:54:02.733Z,3.13
2022-10-13T18:56:31.638Z,3.10
2022-10-13T18:59:00.942Z,2.97
2022-10-13T19:01:30.849Z,3.35
2022-10-13T19:03:57.782Z,3.10
2022-10-13T19:06:28.857Z,3.17
2022-10-13T19:08:57.559Z,2.72
2022-10-13T19:11:24.718Z,3.00
2022-10-13T19:13:52.079Z,3.10
2022-10-13T19:16:22.045Z,2.95
2022-10-13T19:18:48.856Z,3.00
2022-10-13T19:21:16.080Z,3.20
2022-10-13T19:23:43.381Z,3.00
2022-10-13T19:26:24.232Z,2.90
2022-10-13T19:29:02.100Z,3.22
2022-10-13T19:31:30.867Z,3.15
2022-10-13T19:33:59.586Z,2.55
2022-10-13T19:36:36.047Z,3.10
2022-10-13T19:39:06.470Z,3.10
2022-10-13T19:41:33.748Z,2.58
2022-10-13T19:44:00.763Z,2.55
2022-10-13T19:46:38.458Z,2.70
2022-10-13T19:49:05.472Z,2.65
2022-10-13T19:51:33.583Z,2.83
2022-10-13T19:54:00.928Z,2.78
2022-10-13T19:56:34.041Z,2.78
2022-10-13T19:59:02.323Z,2.85
2022-10-13T20:01:29.143Z,2.70
2022-10-13T20:03:57.988Z,3.10
2022-10-13T20:06:24.738Z,2.60
2022-10-13T20:08:51.679Z,2.92
2022-10-13T20:11:23.652Z,2.65
2022-10-13T20:13:52.048Z,2.30
2022-10-13T20:16:23.012Z,2.83
2022-10-13T20:18:58.436Z,3.10
2022-10-13T20:21:27.139Z,2.85
2022-10-13T20:23:54.420Z,3.10
2022-10-13T20:26:21.431Z,2.78
2022-10-13T20:28:49.843Z,2.50
2022-10-13T20:31:18.631Z,2.83
2022-10-13T20:33:45.625Z,2.70
2022-10-13T20:36:15.444Z,2.58
2022-10-13T20:38:42.137Z,2.50
2022-10-13T20:41:15.356Z,2.58
2022-10-13T20:43:42.016Z,2.70
2022-10-13T20:46:09.224Z,2.83
2022-10-13T20:49:05.019Z,2.50
2022-10-13T20:51:24.619Z,3.40
2022-10-13T20:53:51.916Z,2.60
2022-10-13T20:56:21.317Z,2.70
2022-10-13T21:01:15.996Z,2.78
2022-10-13T21:03:42.723Z,2.67
2022-10-13T21:06:12.041Z,2.53
2022-10-13T21:08:39.111Z,2.65
2022-10-13T21:11:11.807Z,2.88
2022-10-13T21:13:41.634Z,2.67
2022-10-13T21:16:14.651Z,2.85
2022-10-13T21:18:45.766Z,2.30
2022-10-13T21:21:12.361Z,2.65
2022-10-13T21:23:40.804Z,2.50
2022-10-13T21:26:09.909Z,2.78
2022-10-13T21:28:38.846Z,2.30
2022-10-13T21:31:11.685Z,2.08
2022-10-13T21:33:40.019Z,2.20
2022-10-13T21:36:08.792Z,2.50
2022-10-13T21:38:36.054Z,2.30
2022-10-13T21:41:07.575Z,2.28
2022-10-13T21:43:34.726Z,2.40
2022-10-13T21:46:11.436Z,2.50
2022-10-13T21:48:42.943Z,2.08
2022-10-13T21:51:30.724Z,2.30
2022-10-13T21:54:00.345Z,2.45
2022-10-13T21:56:30.533Z,2.60
2022-10-13T21:58:58.927Z,2.03
2022-10-13T22:01:25.816Z,2.35
2022-10-13T22:03:55.137Z,2.30
2022-10-13T22:06:25.909Z,2.80
2022-10-13T22:08:54.345Z,2.60
2022-10-13T22:11:23.085Z,2.35
2022-10-13T22:13:50.167Z,2.53
2022-10-13T22:16:22.445Z,2.15
2022-10-13T22:18:52.554Z,2.45
2022-10-13T22:21:22.601Z,2.17
2022-10-13T22:23:49.777Z,2.53
2022-10-13T22:26:18.417Z,2.63
2022-10-13T22:28:45.612Z,2.53
2022-10-13T22:31:13.297Z,2.33
2022-10-13T22:33:41.569Z,2.33
2022-10-13T22:36:16.555Z,2.40
2022-10-13T22:38:44.544Z,2.22
2022-10-13T22:41:13.213Z,2.15
2022-10-13T22:43:40.150Z,2.47
2022-10-13T22:46:17.465Z,2.42
2022-10-13T22:48:44.540Z,1.92
2022-10-13T22:51:19.714Z,2.45
2022-10-13T22:53:46.884Z,2.00
2022-10-13T22:56:16.401Z,2.10
2022-10-13T23:01:12.775Z,2.20
2022-10-13T23:03:40.303Z,1.95
2022-10-13T23:06:08.848Z,2.00
2022-10-13T23:08:35.480Z,2.30
2022-10-13T23:11:02.016Z,1.90
2022-10-13T23:13:28.577Z,2.00
2022-10-13T23:16:07.912Z,2.00
2022-10-13T23:18:37.600Z,2.10
2022-10-13T23:21:09.270Z,1.70
2022-10-13T23:23:36.084Z,2.22
2022-10-13T23:26:15.159Z,2.28
2022-10-13T23:28:42.647Z,1.80
2022-10-13T23:31:13.309Z,1.58
2022-10-13T23:33:40.017Z,1.98
2022-10-13T23:36:08.856Z,2.00
2022-10-13T23:38:35.398Z,1.92
2022-10-13T23:41:07.076Z,2.08
2022-10-13T23:43:34.285Z,1.90
2022-10-13T23:46:01.146Z,1.92
2022-10-13T23:48:28.529Z,1.80
2022-10-13T23:50:55.422Z,1.60
2022-10-13T23:53:21.954Z,1.70
2022-10-13T23:55:48.718Z,1.73
2022-10-13T23:58:15.499Z,1.92
